Time;durP1;ratioP1;P1;durP2;ratioP2;P2;SDS_P1;SDS_P2;PMS_P1;PMS_P2;Temp;Humidity;BMP_temperature;BMP_pressure;BME280_temperature;BME280_humidity;BME280_pressure;Samples;Min_cycle;Max_cycle;Signal;HPM_P1;HPM_P2
2021/06/19 00:01:26;;;;;;;7.28;5.88;;;;;;;;;;5034989;28;20076;-72
2021/06/19 00:03:52;;;;;;;8.65;5.88;;;;;;;;;;5034951;28;20072;-62
2021/06/19 00:06:18;;;;;;;8.85;5.85;;;;;;;;;;5034420;28;20424;-66
2021/06/19 00:08:44;;;;;;;7.72;5.85;;;;;;;;;;5034592;28;20029;-67
2021/06/19 00:11:10;;;;;;;9.13;6.50;;;;;;;;;;5034823;28;20470;-65
2021/06/19 00:13:36;;;;;;;9.40;6.35;;;;;;;;;;5034475;28;20021;-63
2021/06/19 00:16:04;;;;;;;7.72;5.60;;;;;;;;;;5034390;28;20491;-61
2021/06/19 00:18:30;;;;;;;8.73;5.90;;;;;;;;;;5034528;28;20035;-62
2021/06/19 00:20:56;;;;;;;8.60;6.53;;;;;;;;;;5034757;28;20044;-62
2021/06/19 00:23:22;;;;;;;9.07;5.32;;;;;;;;;;5034359;28;20087;-67
2021/06/19 00:25:48;;;;;;;9.20;6.15;;;;;;;;;;5017317;28;20018;-63
2021/06/19 00:28:15;;;;;;;7.75;5.90;;;;;;;;;;5022627;28;20017;-63
2021/06/19 00:30:41;;;;;;;5.97;5.38;;;;;;;;;;5034471;28;20026;-63
2021/06/19 00:33:07;;;;;;;8.02;5.65;;;;;;;;;;5034371;28;20167;-63
2021/06/19 00:35:33;;;;;;;7.78;5.25;;;;;;;;;;5034460;28;20079;-62
2021/06/19 00:37:59;;;;;;;11.02;6.13;;;;;;;;;;5034148;28;20083;-62
2021/06/19 00:40:25;;;;;;;7.72;5.32;;;;;;;;;;5034316;28;20104;-62
2021/06/19 00:42:54;;;;;;;8.15;5.63;;;;;;;;;;5020372;28;20484;-62
2021/06/19 00:45:20;;;;;;;10.18;5.90;;;;;;;;;;5034038;28;20077;-62
2021/06/19 00:47:46;;;;;;;10.95;5.22;;;;;;;;;;5034569;28;20419;-72
2021/06/19 00:50:12;;;;;;;6.22;5.50;;;;;;;;;;5033939;28;20029;-62
2021/06/19 00:52:38;;;;;;;6.40;4.95;;;;;;;;;;5033915;28;20022;-61
2021/06/19 00:55:05;;;;;;;9.35;5.38;;;;;;;;;;5034080;28;20430;-61
2021/06/19 00:57:32;;;;;;;6.82;5.47;;;;;;;;;;5033858;28;20037;-62
2021/06/19 00:59:58;;;;;;;9.95;5.70;;;;;;;;;;5033726;28;20026;-63
2021/06/19 01:02:25;;;;;;;8.10;5.20;;;;;;;;;;5033876;28;20029;-66
2021/06/19 01:04:51;;;;;;;7.20;5.38;;;;;;;;;;5033645;28;20017;-62
2021/06/19 01:07:18;;;;;;;5.47;4.97;;;;;;;;;;5033710;28;20025;-63
2021/06/19 01:09:44;;;;;;;8.90;5.50;;;;;;;;;;5033727;28;20048;-63
2021/06/19 01:12:10;;;;;;;8.70;5.35;;;;;;;;;;5033785;28;20447;-63
2021/06/19 01:14:36;;;;;;;8.90;5.40;;;;;;;;;;5032216;28;20480;-63
2021/06/19 01:17:02;;;;;;;7.68;5.32;;;;;;;;;;5032314;28;20060;-63
2021/06/19 01:19:28;;;;;;;8.13;5.45;;;;;;;;;;5033605;28;20022;-70
2021/06/19 01:21:55;;;;;;;5.72;5.13;;;;;;;;;;5033311;28;20033;-64
2021/06/19 01:24:23;;;;;;;6.00;5.40;;;;;;;;;;5033209;28;20036;-63
2021/06/19 01:26:49;;;;;;;6.50;5.15;;;;;;;;;;5033396;28;20107;-67
2021/06/19 01:29:15;;;;;;;5.65;4.95;;;;;;;;;;5033064;28;20104;-63
2021/06/19 01:31:42;;;;;;;6.55;4.82;;;;;;;;;;5033356;28;20032;-64
2021/06/19 01:34:08;;;;;;;6.22;5.38;;;;;;;;;;5033306;28;20025;-64
2021/06/19 01:36:34;;;;;;;8.65;4.72;;;;;;;;;;5032888;28;20029;-64
2021/06/19 01:39:00;;;;;;;6.40;4.95;;;;;;;;;;5033052;28;20029;-64
2021/06/19 01:41:31;;;;;;;6.90;4.70;;;;;;;;;;5033248;28;20025;-64
2021/06/19 01:44:08;;;;;;;6.03;5.03;;;;;;;;;;5033107;28;20021;-63
2021/06/19 01:46:35;;;;;;;5.63;4.93;;;;;;;;;;5032766;28;20029;-71
2021/06/19 01:49:01;;;;;;;5.93;5.10;;;;;;;;;;5032999;28;20021;-68
2021/06/19 01:51:27;;;;;;;7.10;5.68;;;;;;;;;;5032739;28;20353;-66
2021/06/19 01:53:54;;;;;;;6.40;4.88;;;;;;;;;;5032934;28;20121;-75
2021/06/19 01:56:20;;;;;;;5.90;5.30;;;;;;;;;;5032761;28;20068;-67
2021/06/19 01:58:47;;;;;;;6.95;4.80;;;;;;;;;;5019196;28;20029;-80
2021/06/19 02:01:14;;;;;;;6.40;5.00;;;;;;;;;;5032767;28;20104;-67
2021/06/19 02:03:41;;;;;;;5.50;4.93;;;;;;;;;;5033081;28;20439;-76
2021/06/19 02:06:07;;;;;;;6.57;5.22;;;;;;;;;;5032594;28;20025;-67
2021/06/19 02:08:34;;;;;;;7.75;4.93;;;;;;;;;;5032576;28;20453;-64
2021/06/19 02:11:00;;;;;;;6.35;5.25;;;;;;;;;;5032855;28;20083;-66
2021/06/19 02:13:26;;;;;;;5.55;4.80;;;;;;;;;;5032611;28;20025;-61
2021/06/19 02:15:53;;;;;;;8.93;5.43;;;;;;;;;;5032319;28;20048;-73
2021/06/19 02:18:19;;;;;;;9.90;5.57;;;;;;;;;;5032737;28;20071;-64
2021/06/19 02:20:48;;;;;;;6.28;4.90;;;;;;;;;;5032307;28;20013;-62
2021/06/19 02:23:14;;;;;;;6.75;5.38;;;;;;;;;;5032502;28;20033;-65
2021/06/19 02:25:40;;;;;;;5.68;4.53;;;;;;;;;;5032479;28;20091;-63
2021/06/19 02:28:08;;;;;;;9.30;5.18;;;;;;;;;;5032125;28;20383;-63
2021/06/19 02:30:36;;;;;;;7.07;5.00;;;;;;;;;;5032416;28;20022;-63
2021/06/19 02:33:02;;;;;;;6.68;4.60;;;;;;;;;;5032254;28;20026;-63
2021/06/19 02:35:29;;;;;;;6.97;5.22;;;;;;;;;;5032454;28;20037;-63
2021/06/19 02:37:57;;;;;;;5.95;5.10;;;;;;;;;;5032133;28;20045;-63
2021/06/19 02:40:23;;;;;;;9.48;5.22;;;;;;;;;;5032554;28;20025;-63
2021/06/19 02:42:49;;;;;;;6.00;4.25;;;;;;;;;;5032250;28;20087;-62
2021/06/19 02:45:15;;;;;;;7.82;5.45;;;;;;;;;;5032108;28;20037;-63
2021/06/19 02:47:46;;;;;;;6.95;4.93;;;;;;;;;;5032309;28;20022;-72
2021/06/19 02:50:13;;;;;;;5.30;4.72;;;;;;;;;;5032064;28;20026;-76
2021/06/19 02:52:42;;;;;;;12.13;5.40;;;;;;;;;;5032375;28;20025;-64
2021/06/19 02:55:10;;;;;;;5.75;4.80;;;;;;;;;;5032278;28;20017;-63
2021/06/19 02:57:36;;;;;;;5.75;4.97;;;;;;;;;;5032166;28;20040;-63
2021/06/19 03:00:04;;;;;;;9.32;5.60;;;563.30;1996.80;;;;;;5031992;28;20028;-63
2021/06/19 03:02:30;;;;;;;6.60;4.78;;;;;;;;;;5031924;28;20025;-64
2021/06/19 03:04:56;;;;;;;7.00;4.80;;;;;;;;;;5028112;28;20022;-63
2021/06/19 03:07:22;;;;;;;8.00;4.72;;;;;;;;;;5027063;28;20017;-67
2021/06/19 03:09:48;;;;;;;7.25;5.13;;;;;;;;;;5029118;28;20045;-63
2021/06/19 03:12:14;;;;;;;7.90;5.20;;;;;;;;;;5025946;28;20087;-64
2021/06/19 03:14:41;;;;;;;9.93;4.95;;;;;;;;;;5028956;28;20115;-67
2021/06/19 03:17:07;;;;;;;9.35;5.00;;;;;;;;;;5025530;28;20088;-63
2021/06/19 03:19:33;;;;;;;6.13;4.70;;;;;;;;;;5029150;28;20022;-74
2021/06/19 03:22:00;;;;;;;12.18;5.15;;;;;;;;;;5027890;28;20030;-65
2021/06/19 03:24:26;;;;;;;6.05;4.68;;;563.30;1971.20;;;;;;5027772;28;20017;-65
2021/06/19 03:26:52;;;;;;;6.60;5.07;;;538.50;1971.20;;;;;;5029448;28;20025;-65
2021/06/19 03:29:18;;;;;;;6.65;4.90;;;538.50;1996.80;;;;;;5028757;28;20082;-66
2021/06/19 03:31:44;;;;;;;8.95;4.63;;;;;;;;;;5031827;28;20017;-65
2021/06/19 03:34:10;;;;;;;8.48;4.88;;;;;;;;;;5031894;28;20030;-66
2021/06/19 03:36:36;;;;;;;9.20;6.13;;;;;;;;;;5031563;28;20044;-70
2021/06/19 03:39:02;;;;;;;7.22;5.28;;;;;;;;;;5031762;28;20022;-62
2021/06/19 03:41:28;;;;;;;13.07;4.97;;;;;;;;;;5034547;28;20509;-63
2021/06/19 03:43:55;;;;;;;6.72;4.68;;;;;;;;;;5035340;28;20068;-67
2021/06/19 03:46:21;;;;;;;8.20;5.25;;;;;;;;;;5034718;28;20065;-65
2021/06/19 03:48:47;;;;;;;5.57;4.93;;;;;;;;;;5027450;28;20022;-63
2021/06/19 03:51:13;;;;;;;7.00;4.38;;;;;;;;;;5019421;28;20030;-66
2021/06/19 03:53:39;;;;;;;6.47;5.03;;;563.60;1920.00;;;;;;5017617;28;20030;-64
2021/06/19 03:56:05;;;;;;;5.82;4.80;;;563.50;1945.60;;;;;;5017486;28;20118;-66
2021/06/19 03:58:30;;;;;;;8.05;6.00;;;563.30;1971.20;;;;;;5019284;28;20030;-67
2021/06/19 04:00:56;;;;;;;6.65;5.22;;;563.40;1945.60;;;;;;5024103;28;20017;-73
2021/06/19 04:03:22;;;;;;;6.57;4.50;;;;;;;;;;5025776;28;20049;-74
2021/06/19 04:05:48;;;;;;;7.35;4.55;;;;;;;;;;5025297;28;20072;-63
2021/06/19 04:08:15;;;;;;;6.90;4.88;;;;;;;;;;5028873;28;20471;-64
2021/06/19 04:10:41;;;;;;;5.72;5.13;;;;;;;;;;5027926;28;20035;-63
2021/06/19 04:13:07;;;;;;;14.23;7.93;;;;;;;;;;5033366;28;20506;-64
2021/06/19 04:15:33;;;;;;;14.98;8.02;;;;;;;;;;5032540;28;20495;-63
2021/06/19 04:17:59;;;;;;;12.32;6.85;;;;;;;;;;5034264;28;20040;-70
2021/06/19 04:20:25;;;;;;;11.80;5.13;;;;;;;;;;5031391;28;20053;-71
2021/06/19 04:22:51;;;;;;;6.97;4.90;;;;;;;;;;5014811;28;20022;-65
2021/06/19 04:25:18;;;;;;;6.43;4.85;;;;;;;;;;5021499;28;20088;-64
2021/06/19 04:27:51;;;;;;;10.30;5.43;;;;;;;;;;5018493;28;20022;-62
2021/06/19 04:30:18;;;;;;;9.38;5.35;;;;;;;;;;5034189;28;20061;-60
2021/06/19 04:32:45;;;;;;;6.25;4.97;;;;;;;;;;5032503;28;20028;-61
2021/06/19 04:35:15;;;;;;;6.82;4.80;;;;;;;;;;5026803;28;20484;-58
2021/06/19 04:37:42;;;;;;;5.47;4.57;;;;;;;;;;5020374;28;20033;-60
2021/06/19 04:42:39;;;;;;;8.00;5.22;;;;;;;;;;5026077;28;20076;-62
2021/06/19 04:45:07;;;;;;;10.52;5.13;;;;;;;;;;5020079;28;20026;-63
2021/06/19 04:47:34;;;;;;;5.82;5.22;;;;;;;;;;5028176;28;20030;-63
2021/06/19 04:50:00;;;;;;;7.60;5.43;;;;;;;;;;5024388;28;20014;-63
2021/06/19 04:52:26;;;;;;;7.20;5.43;;;;;;;;;;5026701;28;20018;-74
2021/06/19 04:54:54;;;;;;;7.53;5.80;;;;;;;;;;5026200;28;20349;-79
2021/06/19 04:57:20;;;;;;;10.98;6.18;;;614.80;1740.80;;;;;;5024873;28;20034;-77
2021/06/19 04:59:46;;;;;;;7.00;5.40;;;614.80;1843.20;;;;;;5028216;28;20029;-65
2021/06/19 05:02:11;;;;;;;9.70;5.18;;;614.80;1740.80;;;;;;5022566;28;20030;-66
2021/06/19 05:04:38;;;;;;;8.10;5.60;;;614.80;1740.80;;;;;;5028162;28;20025;-68
2021/06/19 05:07:04;;;;;;;7.13;5.35;;;614.80;1740.80;;;;;;5023699;28;20049;-69
2021/06/19 05:09:30;;;;;;;6.72;5.00;;;615.20;1715.20;;;;;;5026722;28;20024;-66
2021/06/19 05:11:55;;;;;;;7.10;5.25;;;615.10;1689.60;;;;;;5025509;28;20029;-65
2021/06/19 05:14:21;;;;;;;6.40;5.03;;;;;;;;;;5024737;28;20030;-63
2021/06/19 05:16:47;;;;;;;9.80;5.05;;;640.00;1664.00;;;;;;5026924;28;20055;-63
2021/06/19 05:19:13;;;;;;;8.23;5.00;;;;;;;;;;5022877;28;20407;-68
2021/06/19 05:21:40;;;;;;;5.60;4.85;;;640.20;1664.00;;;;;;5027612;28;20518;-62
2021/06/19 05:24:07;;;;;;;6.03;5.07;;;640.00;1689.60;;;;;;5023072;28;20032;-62
2021/06/19 05:26:33;;;;;;;7.05;5.70;;;640.00;1689.60;;;;;;5032619;28;20037;-62
2021/06/19 05:28:58;;;;;;;10.35;5.75;;;615.30;1715.20;;;;;;5029257;28;20468;-62
2021/06/19 05:31:26;;;;;;;6.60;5.03;;;640.20;1689.60;;;;;;5033104;28;20013;-63
2021/06/19 05:33:52;;;;;;;10.82;5.25;;;;;;;;;;5033257;28;20099;-64
2021/06/19 05:36:18;;;;;;;9.10;5.60;;;;;;;;;;5033008;28;20013;-74
2021/06/19 05:38:44;;;;;;;7.25;5.78;;;;;;;;;;5033194;28;20029;-64
2021/06/19 05:41:10;;;;;;;6.97;6.28;;;;;;;;;;5033064;28;20104;-65
2021/06/19 05:43:36;;;;;;;6.15;5.22;;;;;;;;;;5033124;28;20033;-70
2021/06/19 05:46:03;;;;;;;10.95;5.70;;;;;;;;;;5032561;28;20057;-76
2021/06/19 05:48:29;;;;;;;7.30;5.32;;;;;;;;;;5027278;28;20494;-64
2021/06/19 05:50:55;;;;;;;6.30;5.57;;;;;;;;;;5020635;28;20021;-64
2021/06/19 05:53:23;;;;;;;7.13;5.60;;;;;;;;;;5025344;28;20095;-65
2021/06/19 05:55:49;;;;;;;9.43;4.90;;;;;;;;;;5029344;28;20021;-75
2021/06/19 05:58:15;;;;;;;6.20;5.60;;;;;;;;;;5029545;28;20384;-65
2021/06/19 06:00:41;;;;;;;9.05;5.57;;;;;;;;;;5031513;28;20436;-63
2021/06/19 06:03:07;;;;;;;7.18;5.47;;;;;;;;;;5031013;28;20029;-65
2021/06/19 06:05:33;;;;;;;5.97;5.05;;;;;;;;;;5030316;28;20105;-65
2021/06/19 06:08:00;;;;;;;9.55;6.47;;;;;;;;;;5029547;28;20049;-65
2021/06/19 06:10:30;;;;;;;10.55;5.63;;;;;;;;;;5022237;28;20025;-66
2021/06/19 06:12:57;;;;;;;11.93;6.20;;;;;;;;;;5021783;28;20026;-75
2021/06/19 06:15:23;;;;;;;10.52;5.90;;;666.10;1612.80;;;;;;5028463;28;20046;-61
2021/06/19 06:17:49;;;;;;;9.38;6.13;;;666.30;1612.80;;;;;;5025124;28;20089;-65
2021/06/19 06:20:15;;;;;;;8.18;5.47;;;666.20;1612.80;;;;;;5029734;28;20057;-71
2021/06/19 06:22:41;;;;;;;10.35;6.03;;;666.50;1561.60;;;;;;5026183;28;20021;-62
2021/06/19 06:25:08;;;;;;;12.20;5.75;;;666.30;1561.60;;;;;;5028766;28;20022;-66
2021/06/19 06:27:34;;;;;;;6.97;5.43;;;691.20;1536.00;;;;;;5024136;28;20033;-66
2021/06/19 06:30:00;;;;;;;10.23;5.63;;;;;;;;;;5028684;28;20472;-62
2021/06/19 06:32:26;;;;;;;7.10;5.53;;;;;;;;;;5029717;28;20429;-62
2021/06/19 06:34:53;;;;;;;22.95;13.85;;;;;;;;;;5020723;28;20013;-68
2021/06/19 06:37:19;;;;;;;22.92;14.93;;;;;;;;;;5030301;28;20030;-67
2021/06/19 06:39:45;;;;;;;18.92;13.90;;;691.60;1484.80;;;;;;5027549;28;20029;-64
2021/06/19 06:42:11;;;;;;;19.10;14.73;;;691.60;1484.80;;;;;;5022056;28;20025;-68
2021/06/19 06:44:37;;;;;;;31.85;24.38;;;691.50;1484.80;;;;;;5027576;28;20487;-68
2021/06/19 06:47:05;;;;;;;33.38;27.13;;;;;;;;;;5026365;28;20033;-61
2021/06/19 06:49:32;;;;;;;22.50;16.52;;;;;;;;;;5027329;28;20017;-73
2021/06/19 06:51:58;;;;;;;34.55;26.55;;;;;;;;;;5021260;28;20033;-65
2021/06/19 06:54:24;;;;;;;27.25;17.67;;;;;;;;;;5026684;28;20080;-61
2021/06/19 06:56:50;;;;;;;31.13;23.63;;;;;;;;;;5025871;28;20113;-63
2021/06/19 06:59:16;;;;;;;23.98;18.52;;;;;;;;;;5031914;28;20421;-62
2021/06/19 07:01:42;;;;;;;32.03;22.02;;;;;;;;;;5030968;28;20029;-64
2021/06/19 07:04:08;;;;;;;20.88;14.63;;;;;;;;;;5031150;28;20030;-64
2021/06/19 07:06:34;;;;;;;26.73;21.70;;;;;;;;;;5030131;28;20510;-62
2021/06/19 07:09:00;;;;;;;19.85;14.20;;;;;;;;;;5017343;28;20034;-62
2021/06/19 07:11:27;;;;;;;16.58;13.75;;;;;;;;;;5030692;28;20433;-62
2021/06/19 07:13:53;;;;;;;14.77;11.32;;;;;;;;;;5030283;28;20029;-62
2021/06/19 07:16:19;;;;;;;12.73;10.05;;;;;;;;;;5033385;28;20057;-64
2021/06/19 07:18:45;;;;;;;12.10;9.93;;;;;;;;;;5034692;28;20398;-71
2021/06/19 07:21:11;;;;;;;9.02;7.80;;;;;;;;;;5035197;28;20018;-62
2021/06/19 07:23:37;;;;;;;11.30;8.32;;;;;;;;;;5034730;28;20029;-62
2021/06/19 07:26:03;;;;;;;9.07;7.95;;;;;;;;;;5035409;28;20017;-62
2021/06/19 07:28:29;;;;;;;7.45;5.78;;;;;;;;;;5035113;28;20029;-64
2021/06/19 07:30:55;;;;;;;8.05;6.88;;;;;;;;;;5035495;28;20033;-66
2021/06/19 07:33:21;;;;;;;10.55;7.72;;;717.10;1356.80;;;;;;5035497;28;20026;-62
2021/06/19 07:35:47;;;;;;;10.27;7.65;;;717.10;1331.20;;;;;;5035512;28;20175;-61
2021/06/19 07:38:13;;;;;;;16.40;7.25;;;717.20;1331.20;;;;;;5035086;28;20048;-60
2021/06/19 07:40:39;;;;;;;12.52;6.97;;;717.10;1356.80;;;;;;5035526;28;20022;-61
2021/06/19 07:43:05;;;;;;;7.80;6.00;;;;;;;;;;5035094;28;20014;-68
2021/06/19 07:45:30;;;;;;;11.75;7.00;;;717.50;1331.20;;;;;;5035366;28;20033;-62
2021/06/19 07:47:56;;;;;;;11.10;6.80;;;717.40;1331.20;;;;;;5034990;28;20076;-68
2021/06/19 07:50:22;;;;;;;11.93;6.05;;;717.30;1356.80;;;;;;5035116;28;20510;-64
2021/06/19 07:52:47;;;;;;;8.68;5.78;;;717.30;1305.60;;;;;;5034990;28;20384;-69
2021/06/19 07:55:14;;;;;;;12.23;6.70;;;717.30;1356.80;;;;;;5034938;28;20541;-61
2021/06/19 07:57:40;;;;;;;9.30;5.78;;;717.40;1356.80;;;;;;5035037;28;20061;-63
2021/06/19 08:00:06;;;;;;;8.98;6.43;;;717.40;1331.20;;;;;;5034978;28;20021;-69
2021/06/19 08:02:32;;;;;;;9.73;6.30;;;717.70;1305.60;;;;;;5033715;28;20068;-61
2021/06/19 08:04:58;;;;;;;14.18;6.65;;;717.70;1331.20;;;;;;5034649;28;20071;-62
2021/06/19 08:07:24;;;;;;;9.60;6.15;;;717.70;1331.20;;;;;;5035276;28;20025;-74
2021/06/19 08:09:50;;;;;;;7.15;5.88;;;717.70;1331.20;;;;;;5034862;28;20025;-65
2021/06/19 08:12:15;;;;;;;10.40;6.18;;;717.70;1305.60;;;;;;5034436;28;20380;-62
2021/06/19 08:14:41;;;;;;;12.07;5.88;;;742.40;1331.20;;;;;;5034714;28;20033;-62
2021/06/19 08:20:06;;;;;;;8.43;5.72;;;742.50;1280.00;;;;;;5012431;28;20037;-62
2021/06/19 08:22:31;;;;;;;9.20;6.10;;;742.50;1280.00;;;;;;5012252;28;20119;-65
2021/06/19 08:24:57;;;;;;;6.72;5.70;;;742.60;1254.40;;;;;;5012488;28;20492;-62
2021/06/19 08:27:25;;;;;;;8.10;6.05;;;742.70;1280.00;;;;;;5011983;28;20498;-62
2021/06/19 08:29:52;;;;;;;13.57;5.20;;;742.80;1305.60;;;;;;4995986;28;20544;-63
2021/06/19 08:32:18;;;;;;;9.57;5.85;;;742.90;1228.80;;;;;;5012223;28;20037;-62
2021/06/19 08:34:44;;;;;;;7.00;5.68;;;743.00;1228.80;;;;;;5012055;28;20076;-64
2021/06/19 08:37:10;;;;;;;8.18;5.93;;;743.00;1228.80;;;;;;5012179;28;20049;-62
2021/06/19 08:39:36;;;;;;;8.63;5.38;;;743.30;1203.20;;;;;;5011972;28;20049;-62
2021/06/19 08:42:02;;;;;;;10.85;5.35;;;;;;;;;;5012044;28;20117;-62
2021/06/19 08:44:29;;;;;;;8.43;5.93;;;;;;;;;;5012190;28;20106;-63
2021/06/19 08:46:56;;;;;;;6.40;5.72;;;;;;;;;;5011877;28;20133;-64
2021/06/19 08:49:23;;;;;;;7.40;5.03;;;;;;;;;;5011878;28;20073;-62
2021/06/19 08:51:57;;;;;;;9.65;5.60;;;;;;;;;;5012080;28;20022;-68
2021/06/19 08:54:23;;;;;;;8.77;6.03;;;;;;;;;;5012007;28;20026;-65
2021/06/19 08:56:50;;;;;;;7.35;5.32;;;;;;;;;;5031832;28;20120;-66
2021/06/19 08:59:16;;;;;;;8.27;5.82;;;;;;;;;;5032850;28;20087;-62
2021/06/19 09:01:42;;;;;;;8.68;5.28;;;;;;;;;;5033733;28;20025;-62
2021/06/19 09:04:11;;;;;;;7.45;5.10;;;;;;;;;;5033871;28;20378;-63
2021/06/19 09:06:38;;;;;;;9.45;5.07;;;;;;;;;;5033566;28;20487;-61
2021/06/19 09:09:06;;;;;;;6.78;5.30;;;;;;;;;;5033682;28;20029;-62
2021/06/19 09:11:34;;;;;;;5.55;5.00;;;;;;;;;;5033723;28;20025;-62
2021/06/19 09:14:05;;;;;;;8.70;6.10;;;;;;;;;;5033468;28;20475;-62
2021/06/19 09:16:31;;;;;;;9.68;5.15;;;;;;;;;;5033244;28;20061;-62
2021/06/19 09:18:59;;;;;;;9.30;6.20;;;;;;;;;;5033146;28;20105;-66
2021/06/19 09:21:35;;;;;;;12.35;5.68;;;;;;;;;;5033537;28;20026;-63
2021/06/19 09:24:01;;;;;;;7.57;5.75;;;;;;;;;;5033291;28;20033;-62
2021/06/19 09:26:30;;;;;;;7.25;5.65;;;;;;;;;;5033368;28;20087;-62
2021/06/19 09:28:57;;;;;;;6.13;5.40;;;;;;;;;;5033673;28;20033;-64
2021/06/19 09:31:30;;;;;;;7.47;6.07;;;;;;;;;;5032978;28;20029;-62
2021/06/19 09:34:02;;;;;;;8.05;5.63;;;;;;;;;;5033110;28;20053;-62
2021/06/19 09:36:35;;;;;;;6.93;5.95;;;;;;;;;;5033242;28;20423;-62
2021/06/19 09:39:05;;;;;;;8.13;5.70;;;;;;;;;;5032555;28;20029;-66
2021/06/19 09:41:54;;;;;;;14.75;6.45;;;;;;;;;;5033274;28;20091;-63
2021/06/19 09:44:32;;;;;;;10.43;6.35;;;;;;;;;;5011252;28;20042;-62
2021/06/19 09:46:58;;;;;;;8.65;5.95;;;;;;;;;;5010972;28;20415;-63
2021/06/19 09:49:29;;;;;;;10.20;5.47;;;;;;;;;;5009605;28;20037;-62
2021/06/19 09:51:55;;;;;;;8.48;5.90;;;;;;;;;;4999860;28;20113;-66
2021/06/19 09:54:21;;;;;;;6.45;5.72;;;;;;;;;;5010617;28;20102;-64
2021/06/19 09:56:47;;;;;;;6.80;5.50;;;;;;;;;;5010663;28;20033;-62
2021/06/19 09:59:38;;;;;;;9.90;5.90;;;;;;;;;;5010862;28;20030;-62
2021/06/19 10:02:16;;;;;;;6.95;6.00;;;;;;;;;;4999544;28;20041;-62
2021/06/19 10:04:48;;;;;;;7.50;6.18;;;;;;;;;;5010649;28;20037;-62
2021/06/19 10:07:14;;;;;;;8.27;6.45;;;;;;;;;;5010535;28;20046;-61
2021/06/19 10:09:41;;;;;;;9.48;7.07;;;;;;;;;;5010664;28;20041;-62
2021/06/19 10:12:07;;;;;;;7.72;5.35;;;;;;;;;;5010801;28;20022;-63
2021/06/19 10:14:34;;;;;;;11.27;5.70;;;;;;;;;;5010636;28;20425;-62
2021/06/19 10:17:00;;;;;;;7.53;6.20;;;;;;;;;;5010329;28;20501;-63
2021/06/19 10:19:27;;;;;;;9.80;7.05;;;;;;;;;;5010698;28;20100;-62
2021/06/19 10:21:54;;;;;;;8.82;6.22;;;;;;;;;;5014688;28;20404;-63
2021/06/19 10:24:22;;;;;;;11.80;6.63;;;;;;;;;;5014354;28;20430;-63
2021/06/19 10:26:49;;;;;;;9.75;6.10;;;;;;;;;;5016558;28;20053;-63
2021/06/19 10:29:16;;;;;;;11.38;6.18;;;;;;;;;;5028507;28;20091;-63
2021/06/19 10:31:42;;;;;;;11.77;7.07;;;;;;;;;;5032428;28;20025;-62
2021/06/19 10:34:28;;;;;;;9.50;7.05;;;;;;;;;;5032312;28;20033;-63
2021/06/19 10:36:56;;;;;;;11.48;6.60;;;;;;;;;;5032374;28;20021;-63
2021/06/19 10:39:34;;;;;;;8.43;7.00;;;;;;;;;;5032296;28;20048;-62
2021/06/19 10:42:01;;;;;;;11.40;6.40;;;;;;;;;;5032423;28;20091;-63
2021/06/19 10:44:46;;;;;;;7.95;6.55;;;;;;;;;;5032205;28;20026;-63
2021/06/19 10:47:12;;;;;;;9.55;6.25;;;;;;;;;;5032229;28;20041;-63
2021/06/19 10:49:41;;;;;;;9.15;6.75;;;;;;;;;;5033946;28;20057;-63
2021/06/19 10:52:24;;;;;;;14.43;6.88;;;;;;;;;;5036367;28;20025;-72
2021/06/19 10:55:09;;;;;;;9.23;6.93;;;;;;;;;;5036111;28;20029;-64
2021/06/19 10:57:44;;;;;;;11.35;6.05;;;;;;;;;;5035911;28;20048;-73
2021/06/19 11:00:29;;;;;;;10.60;6.68;;;;;;;;;;5036159;28;20072;-62
2021/06/19 11:02:56;;;;;;;8.90;6.03;;;;;;;;;;5036036;28;20028;-62
2021/06/19 11:05:44;;;;;;;9.80;7.15;;;;;;;;;;5034704;28;20026;-62
2021/06/19 11:08:11;;;;;;;8.30;5.80;;;;;;;;;;5035907;28;20033;-64
2021/06/19 11:10:43;;;;;;;9.05;6.00;;;;;;;;;;5034458;28;20018;-71
2021/06/19 11:13:31;;;;;;;10.52;6.47;;;;;;;;;;5036181;28;20037;-63
2021/06/19 11:15:57;;;;;;;7.75;6.10;;;;;;;;;;5035788;28;20108;-65
2021/06/19 11:18:41;;;;;;;9.18;6.15;;;;;;;;;;5035684;28;20509;-63
2021/06/19 11:21:11;;;;;;;8.10;5.90;;;;;;;;;;5035816;28;20025;-64
2021/06/19 11:23:55;;;;;;;6.15;5.50;;;;;;;;;;5035374;28;20036;-63
2021/06/19 11:26:40;;;;;;;6.90;5.53;;;;;;;;;;5035767;28;20506;-63
2021/06/19 11:29:25;;;;;;;8.52;6.30;;;;;;;;;;5035376;28;20072;-72
2021/06/19 11:31:51;;;;;;;6.68;5.25;;;;;;;;;;5035546;28;20036;-67
2021/06/19 11:34:35;;;;;;;9.10;5.70;;;;;;;;;;5035285;28;20030;-66
2021/06/19 11:37:01;;;;;;;9.63;5.55;;;;;;;;;;5035406;28;20148;-62
2021/06/19 11:39:34;;;;;;;7.70;5.53;;;;;;;;;;5035174;28;20025;-67
2021/06/19 11:42:01;;;;;;;7.03;5.15;;;;;;;;;;5035280;28;20471;-63
2021/06/19 11:44:33;;;;;;;11.82;6.28;;;;;;;;;;5035103;28;20028;-62
2021/06/19 11:47:04;;;;;;;10.57;5.80;;;;;;;;;;5035700;28;20068;-63
2021/06/19 11:49:31;;;;;;;11.75;6.18;;;;;;;;;;5035481;28;20017;-63
2021/06/19 11:51:58;;;;;;;17.30;6.10;;;;;;;;;;5033726;28;20510;-64
2021/06/19 11:54:25;;;;;;;8.48;5.80;;;;;;;;;;5035004;28;20489;-65
2021/06/19 11:56:51;;;;;;;9.55;6.07;;;;;;;;;;5034927;28;20026;-66
2021/06/19 11:59:18;;;;;;;9.52;5.88;;;;;;;;;;5034946;28;20026;-64
2021/06/19 12:01:46;;;;;;;9.80;6.18;;;;;;;;;;5034109;28;20435;-66
2021/06/19 12:04:12;;;;;;;9.10;6.25;;;;;;;;;;5035024;28;20021;-64
2021/06/19 12:06:57;;;;;;;7.32;4.70;;;;;;;;;;5034779;28;20053;-63
2021/06/19 12:09:27;;;;;;;6.38;5.40;;;;;;;;;;5035139;28;20167;-63
2021/06/19 12:11:54;;;;;;;8.53;5.87;;;;;;;;;;5033394;28;20036;-68
2021/06/19 12:14:20;;;;;;;8.23;6.18;;;;;;;;;;5033417;28;20160;-66
2021/06/19 12:16:50;;;;;;;7.22;6.15;;;;;;;;;;5034516;28;20407;-66
2021/06/19 12:19:17;;;;;;;9.00;6.35;;;;;;;;;;5034544;28;20021;-69
2021/06/19 12:21:44;;;;;;;11.35;6.22;;;;;;;;;;5033310;28;20029;-63
2021/06/19 12:24:25;;;;;;;9.85;5.80;;;;;;;;;;5034391;28;20021;-63
2021/06/19 12:26:58;;;;;;;9.75;5.80;;;;;;;;;;5034354;28;20029;-66
2021/06/19 12:29:31;;;;;;;9.40;5.38;;;;;;;;;;5034367;28;20029;-66
2021/06/19 12:31:57;;;;;;;10.63;6.20;;;;;;;;;;5034074;28;20026;-69
2021/06/19 12:34:26;;;;;;;8.85;6.10;;;;;;;;;;5034381;28;20032;-64
2021/06/19 12:36:52;;;;;;;8.70;6.03;;;;;;;;;;5034208;28;20026;-66
2021/06/19 12:39:20;;;;;;;10.45;6.20;;;;;;;;;;5034200;28;20037;-67
2021/06/19 12:41:46;;;;;;;11.82;5.85;;;;;;;;;;5034278;28;20014;-62
2021/06/19 12:44:12;;;;;;;7.60;5.82;;;;;;;;;;5034129;28;20035;-62
2021/06/19 12:46:39;;;;;;;7.10;5.95;;;;;;;;;;5033850;28;20033;-66
2021/06/19 12:49:06;;;;;;;7.13;5.97;;;;;;;;;;5033990;28;20038;-63
2021/06/19 12:51:36;;;;;;;8.00;6.20;;;;;;;;;;5033795;28;20514;-65
2021/06/19 12:54:21;;;;;;;15.97;7.67;;;;;;;;;;5033875;28;20068;-62
2021/06/19 12:56:57;;;;;;;10.23;5.43;;;;;;;;;;5034290;28;20278;-63
2021/06/19 12:59:23;;;;;;;10.77;6.57;;;;;;;;;;5034006;28;20029;-63
2021/06/19 13:02:01;;;;;;;10.20;6.47;;;;;;;;;;5033759;28;20018;-63
2021/06/19 13:04:29;;;;;;;8.38;6.68;;;;;;;;;;5033618;28;20029;-63
2021/06/19 13:07:03;;;;;;;13.10;7.28;;;;;;;;;;5033632;28;20020;-62
2021/06/19 13:09:46;;;;;;;7.28;6.13;;;;;;;;;;5033723;28;20104;-62
2021/06/19 13:12:12;;;;;;;7.60;6.78;;;;;;;;;;5033527;28;20087;-63
2021/06/19 13:14:38;;;;;;;9.05;5.82;;;;;;;;;;5033596;28;20064;-62
2021/06/19 13:17:14;;;;;;;9.48;6.55;;;742.80;1408.00;;;;;;5033184;28;20056;-71
2021/06/19 13:19:41;;;;;;;11.13;6.53;;;742.80;1459.20;;;;;;5033380;28;20045;-62
2021/06/19 13:22:07;;;;;;;9.52;6.75;;;;;;;;;;5019301;28;20034;-62
2021/06/19 13:24:34;;;;;;;11.70;6.50;;;;;;;;;;5033316;28;20418;-62
2021/06/19 13:27:12;;;;;;;7.38;5.30;;;;;;;;;;5033502;28;20025;-64
2021/06/19 13:29:38;;;;;;;6.95;6.05;;;;;;;;;;5033305;28;20014;-63
2021/06/19 13:32:05;;;;;;;13.25;8.02;;;716.90;1689.60;;;;;;5033201;28;20029;-62
2021/06/19 13:34:31;;;;;;;13.13;10.50;;;;;;;;;;5033355;28;20032;-62
2021/06/19 13:37:01;;;;;;;12.48;9.60;;;;;;;;;;5033154;28;20036;-65
2021/06/19 13:39:27;;;;;;;7.78;6.47;;;;;;;;;;5032911;28;20021;-63
2021/06/19 13:42:04;;;;;;;8.20;5.80;;;;;;;;;;5033154;28;20024;-65
2021/06/19 13:44:32;;;;;;;5.97;5.20;;;;;;;;;;5033104;28;20026;-62
2021/06/19 13:46:58;;;;;;;9.07;5.45;;;;;;;;;;5032892;28;20057;-62
2021/06/19 13:49:25;;;;;;;9.43;5.65;;;;;;;;;;5031657;28;20466;-63
2021/06/19 13:51:54;;;;;;;10.82;5.78;;;;;;;;;;5031452;28;20032;-62
2021/06/19 13:54:20;;;;;;;7.60;5.70;;;;;;;;;;5032914;28;20104;-62
2021/06/19 13:56:47;;;;;;;18.00;6.93;;;;;;;;;;5032673;28;20025;-62
2021/06/19 13:59:13;;;;;;;10.77;8.30;;;;;;;;;;5032902;28;20369;-65
2021/06/19 14:01:41;;;;;;;7.63;5.28;;;;;;;;;;5032770;28;20388;-62
2021/06/19 14:04:08;;;;;;;9.18;5.55;;;;;;;;;;5032903;28;20392;-65
2021/06/19 14:06:34;;;;;;;12.23;6.35;;;;;;;;;;5032485;28;20092;-66
2021/06/19 14:09:01;;;;;;;9.02;5.80;;;;;;;;;;5032879;28;20025;-62
2021/06/19 14:11:28;;;;;;;10.02;5.93;;;;;;;;;;5032882;28;20026;-64
2021/06/19 14:13:55;;;;;;;7.85;5.32;;;;;;;;;;5032474;28;20036;-62
2021/06/19 14:16:22;;;;;;;7.45;6.05;;;;;;;;;;5032288;28;20404;-63
2021/06/19 14:18:48;;;;;;;9.25;5.90;;;;;;;;;;5032356;28;20028;-63
2021/06/19 14:21:15;;;;;;;6.80;6.07;;;;;;;;;;5023364;28;20028;-65